createdAt,value
2022-10-25T00:00:37.511Z,14.10
2022-10-25T00:04:40.542Z,14.11
2022-10-25T00:08:44.134Z,14.14
2022-10-25T00:12:48.894Z,14.19
2022-10-25T00:16:52.405Z,14.21
2022-10-25T00:20:55.877Z,14.24
2022-10-25T00:24:59.511Z,14.27
2022-10-25T00:29:04.235Z,14.31
2022-10-25T00:33:07.722Z,14.34
2022-10-25T00:37:10.970Z,14.36
2022-10-25T00:41:15.971Z,14.36
2022-10-25T00:45:24.634Z,14.37
2022-10-25T00:49:28.453Z,14.35
2022-10-25T00:53:37.179Z,14.32
2022-10-25T00:57:44.663Z,14.28
2022-10-25T01:01:50.050Z,14.20
2022-10-25T01:05:54.458Z,14.16
2022-10-25T01:09:58.528Z,14.12
2022-10-25T01:14:01.468Z,14.14
2022-10-25T01:18:12.365Z,14.13
2022-10-25T01:22:24.480Z,14.11
2022-10-25T01:26:54.611Z,14.06
2022-10-25T01:31:19.558Z,14.00
2022-10-25T01:35:29.731Z,13.95
2022-10-25T01:39:36.249Z,13.86
2022-10-25T01:43:47.317Z,13.86
2022-10-25T01:47:57.437Z,13.86
2022-10-25T01:52:00.918Z,13.87
2022-10-25T01:56:06.829Z,13.87
2022-10-25T02:00:13.274Z,13.90
2022-10-25T02:04:22.625Z,13.93
2022-10-25T02:08:33.234Z,14.00
2022-10-25T02:12:49.645Z,14.08
2022-10-25T02:16:58.944Z,14.15
2022-10-25T02:21:07.105Z,14.18
2022-10-25T02:25:11.066Z,14.25
2022-10-25T02:33:36.740Z,14.25
2022-10-25T02:37:41.213Z,14.14
2022-10-25T02:41:44.697Z,14.11
2022-10-25T02:45:48.334Z,14.17
2022-10-25T02:49:51.883Z,14.20
2022-10-25T02:53:56.464Z,14.21
2022-10-25T02:58:00.555Z,14.18
2022-10-25T03:02:03.616Z,14.16
2022-10-25T03:06:08.286Z,14.13
2022-10-25T03:10:12.819Z,14.08
2022-10-25T03:14:16.584Z,14.02
2022-10-25T03:18:19.646Z,13.96
2022-10-25T03:22:22.989Z,13.90
2022-10-25T03:26:27.542Z,13.82
2022-10-25T03:30:31.951Z,13.71
2022-10-25T03:34:35.771Z,13.60
2022-10-25T03:38:38.777Z,13.48
2022-10-25T03:42:43.925Z,13.38
2022-10-25T03:46:46.921Z,13.15
2022-10-25T03:50:50.355Z,13.17
2022-10-25T03:54:53.310Z,13.07
2022-10-25T03:58:58.245Z,13.02
2022-10-25T04:03:03.195Z,12.98
2022-10-25T04:07:06.361Z,12.98
2022-10-25T04:11:09.945Z,12.94
2022-10-25T04:15:15.179Z,12.91
2022-10-25T04:19:19.010Z,12.91
2022-10-25T04:23:21.990Z,12.91
2022-10-25T04:27:25.596Z,12.92
2022-10-25T04:31:30.056Z,12.91
2022-10-25T04:35:33.509Z,12.88
2022-10-25T04:39:36.744Z,12.86
2022-10-25T04:43:40.175Z,12.83
2022-10-25T04:47:44.542Z,12.80
2022-10-25T04:51:48.081Z,12.76
2022-10-25T04:55:57.363Z,12.69
2022-10-25T05:00:00.886Z,12.58
2022-10-25T05:04:06.170Z,12.51
2022-10-25T05:08:09.836Z,12.42
2022-10-25T05:12:13.572Z,12.37
2022-10-25T05:16:21.954Z,12.28
2022-10-25T05:20:26.384Z,12.18
2022-10-25T05:24:30.130Z,12.11
2022-10-25T05:28:33.609Z,12.04
2022-10-25T05:32:37.119Z,11.97
2022-10-25T05:36:41.765Z,11.95
2022-10-25T05:40:45.279Z,11.97
2022-10-25T05:44:48.289Z,12.07
2022-10-25T05:48:53.767Z,12.16
2022-10-25T05:52:58.787Z,12.26
2022-10-25T05:57:01.888Z,12.38
2022-10-25T06:01:05.504Z,12.51
2022-10-25T06:05:09.312Z,12.66
2022-10-25T06:09:14.612Z,12.88
2022-10-25T06:13:17.578Z,13.03
2022-10-25T06:17:21.039Z,13.28
2022-10-25T06:21:26.062Z,13.51
2022-10-25T06:25:31.147Z,13.77
2022-10-25T06:29:34.226Z,14.03
2022-10-25T06:33:37.847Z,14.28
2022-10-25T06:37:40.864Z,14.56
2022-10-25T06:41:45.215Z,14.88
2022-10-25T06:45:48.419Z,15.23
2022-10-25T06:49:51.976Z,15.60
2022-10-25T06:53:56.723Z,15.93
2022-10-25T06:58:01.160Z,16.19
2022-10-25T07:02:04.678Z,16.44
2022-10-25T07:06:11.249Z,16.75
2022-10-25T07:10:14.342Z,16.98
2022-10-25T07:14:19.191Z,17.06
2022-10-25T07:18:22.192Z,16.97
2022-10-25T07:22:25.213Z,16.65
2022-10-25T07:26:31.218Z,16.63
2022-10-25T07:30:36.193Z,16.50
2022-10-25T07:34:39.210Z,16.52
2022-10-25T07:38:42.694Z,16.64
2022-10-25T07:42:46.300Z,16.78
2022-10-25T07:46:52.353Z,16.88
2022-10-25T07:50:55.457Z,17.07
2022-10-25T07:54:58.990Z,17.36
2022-10-25T07:59:02.368Z,17.68
2022-10-25T08:03:07.450Z,18.02
2022-10-25T08:07:11.359Z,18.37
2022-10-25T08:11:14.487Z,18.71
2022-10-25T08:15:18.895Z,19.00
2022-10-25T08:19:23.547Z,19.30
2022-10-25T08:23:27.310Z,19.59
2022-10-25T08:27:30.832Z,19.93
2022-10-25T08:31:33.925Z,20.16
2022-10-25T08:35:38.473Z,20.20
2022-10-25T08:39:41.890Z,20.00
2022-10-25T08:44:09.580Z,19.75
2022-10-25T08:48:18.071Z,19.57
2022-10-25T08:52:31.458Z,19.50
2022-10-25T08:56:42.627Z,19.63
2022-10-25T09:00:54.336Z,19.88
2022-10-25T09:04:57.393Z,20.18
2022-10-25T09:09:16.517Z,20.46
2022-10-25T09:13:29.776Z,20.71
2022-10-25T09:17:45.811Z,20.91
2022-10-25T09:21:52.746Z,21.11
2022-10-25T09:26:05.112Z,21.29
2022-10-25T09:30:10.462Z,21.47
2022-10-25T09:34:15.619Z,21.69
2022-10-25T09:38:23.186Z,21.84
2022-10-25T09:42:35.862Z,21.89
2022-10-25T09:46:41.530Z,21.98
2022-10-25T09:50:50.841Z,22.04
2022-10-25T09:54:57.250Z,22.08
2022-10-25T09:59:04.980Z,22.14
2022-10-25T10:03:11.209Z,22.14
2022-10-25T10:07:20.333Z,22.19
2022-10-25T10:11:23.766Z,22.16
2022-10-25T10:15:32.409Z,22.19
2022-10-25T10:19:35.930Z,22.19
2022-10-25T10:23:47.447Z,22.24
2022-10-25T10:27:52.167Z,22.29
2022-10-25T10:31:59.851Z,22.38
2022-10-25T10:36:24.831Z,22.48
2022-10-25T10:40:28.752Z,22.55
2022-10-25T10:44:35.181Z,22.61
2022-10-25T10:48:43.267Z,22.69
2022-10-25T10:52:47.974Z,22.72
2022-10-25T10:56:56.416Z,22.72
2022-10-25T11:01:02.689Z,22.76
2022-10-25T11:05:21.413Z,22.81
2022-10-25T11:09:25.936Z,22.89
2022-10-25T11:13:29.438Z,22.97
2022-10-25T11:17:37.828Z,23.04
2022-10-25T11:22:19.306Z,23.18
2022-10-25T11:26:32.785Z,23.30
2022-10-25T11:30:44.222Z,23.38
2022-10-25T11:34:55.569Z,23.42
2022-10-25T11:39:15.106Z,23.48
2022-10-25T11:43:46.436Z,23.52
2022-10-25T11:48:02.213Z,23.59
2022-10-25T11:52:24.256Z,23.67
2022-10-25T11:56:38.595Z,23.76
2022-10-25T12:00:53.985Z,23.86
2022-10-25T12:05:10.629Z,23.96
2022-10-25T12:09:28.055Z,24.08
2022-10-25T12:13:36.811Z,24.20
2022-10-25T12:17:40.715Z,24.28
2022-10-25T12:21:47.909Z,24.32
2022-10-25T12:25:54.126Z,24.34
2022-10-25T12:30:04.323Z,24.41
2022-10-25T12:34:13.249Z,24.50
2022-10-25T12:38:22.642Z,24.60
2022-10-25T12:42:31.168Z,24.69
2022-10-25T12:47:04.534Z,24.78
2022-10-25T12:51:25.243Z,24.84
2022-10-25T12:55:42.688Z,24.83
2022-10-25T12:59:59.717Z,24.81
2022-10-25T13:04:31.545Z,24.76
2022-10-25T13:08:35.556Z,24.69
2022-10-25T13:12:41.591Z,24.65
2022-10-25T13:16:45.294Z,24.63
2022-10-25T13:20:52.174Z,24.68
2022-10-25T13:24:55.376Z,24.69
2022-10-25T13:29:00.796Z,24.67
2022-10-25T13:33:33.734Z,24.72
2022-10-25T13:37:44.356Z,24.78
2022-10-25T13:41:48.112Z,24.78
2022-10-25T13:45:56.136Z,24.86
2022-10-25T13:50:00.201Z,24.86
2022-10-25T13:54:09.707Z,24.85
2022-10-25T13:58:41.838Z,24.83
2022-10-25T14:03:34.713Z,24.84
2022-10-25T14:07:51.377Z,24.85
2022-10-25T14:12:11.945Z,24.84
2022-10-25T14:16:23.884Z,24.85
2022-10-25T14:20:31.053Z,24.79
2022-10-25T14:24:35.554Z,24.78
2022-10-25T14:28:41.724Z,24.72
2022-10-25T14:32:52.354Z,24.65
2022-10-25T14:36:57.586Z,24.55
2022-10-25T14:45:21.724Z,24.35
2022-10-25T14:49:25.348Z,24.23
2022-10-25T14:53:30.480Z,24.12
2022-10-25T14:57:34.843Z,24.03
2022-10-25T15:01:40.403Z,23.94
2022-10-25T15:05:43.920Z,23.81
2022-10-25T15:09:50.887Z,23.68
2022-10-25T15:13:54.957Z,23.52
2022-10-25T15:18:00.650Z,23.34
2022-10-25T15:22:10.825Z,23.12
2022-10-25T15:26:29.976Z,22.89
2022-10-25T15:30:38.096Z,22.66
2022-10-25T15:34:44.071Z,22.38
2022-10-25T15:39:07.885Z,22.07
2022-10-25T15:43:10.157Z,21.79
2022-10-25T15:47:28.716Z,21.33
2022-10-25T15:51:35.998Z,21.02
2022-10-25T15:55:39.301Z,20.63
2022-10-25T15:59:43.150Z,20.27
2022-10-25T16:03:46.323Z,19.93
2022-10-25T16:07:51.780Z,19.61
2022-10-25T16:11:56.102Z,19.30
2022-10-25T16:16:04.412Z,19.03
2022-10-25T16:20:17.374Z,18.79
2022-10-25T16:24:22.097Z,18.54
2022-10-25T16:32:29.522Z,18.15
2022-10-25T16:36:32.786Z,17.96
2022-10-25T16:40:38.479Z,17.81
2022-10-25T16:44:41.403Z,17.66
2022-10-25T16:48:44.898Z,17.53
2022-10-25T16:52:48.038Z,17.39
2022-10-25T16:56:53.396Z,17.24
2022-10-25T17:00:59.876Z,17.09
2022-10-25T17:05:03.465Z,16.94
2022-10-25T17:09:06.925Z,16.81
2022-10-25T17:13:16.646Z,16.72
2022-10-25T17:17:19.842Z,16.63
2022-10-25T17:21:24.666Z,16.56
2022-10-25T17:25:27.842Z,16.50
2022-10-25T17:29:33.146Z,16.44
2022-10-25T17:33:36.276Z,16.38
2022-10-25T17:37:43.302Z,16.36
2022-10-25T17:41:46.604Z,16.30
2022-10-25T17:45:51.886Z,16.28
2022-10-25T17:50:00.808Z,16.24
2022-10-25T17:54:03.978Z,16.19
2022-10-25T17:58:07.519Z,16.16
2022-10-25T18:02:13.630Z,16.14
2022-10-25T18:06:19.860Z,16.13
2022-10-25T18:10:23.547Z,16.11
2022-10-25T18:14:26.744Z,16.11
2022-10-25T18:18:32.537Z,16.11
2022-10-25T18:22:35.696Z,16.07
2022-10-25T18:26:39.326Z,16.04
2022-10-25T18:30:42.962Z,16.00
2022-10-25T18:34:48.260Z,15.98
2022-10-25T18:38:51.990Z,15.95
2022-10-25T18:42:55.837Z,15.91
2022-10-25T18:46:59.442Z,15.87
2022-10-25T18:51:08.659Z,15.83
2022-10-25T18:55:12.794Z,15.78
2022-10-25T18:59:16.127Z,15.68
2022-10-25T19:03:20.064Z,15.61
2022-10-25T19:07:25.197Z,15.52
2022-10-25T19:11:29.163Z,15.43
2022-10-25T19:15:32.274Z,15.31
2022-10-25T19:19:36.039Z,15.24
2022-10-25T19:23:42.912Z,15.19
2022-10-25T19:27:53.149Z,15.14
2022-10-25T19:31:58.170Z,15.07
2022-10-25T19:36:09.669Z,15.00
2022-10-25T19:40:14.947Z,14.88
2022-10-25T19:44:18.587Z,14.79
2022-10-25T19:48:22.345Z,14.67
2022-10-25T19:52:25.611Z,14.59
2022-10-25T19:56:29.974Z,14.52
2022-10-25T20:00:34.304Z,14.43
2022-10-25T20:04:37.396Z,14.38
2022-10-25T20:08:42.568Z,14.33
2022-10-25T20:12:47.295Z,14.25
2022-10-25T20:16:51.164Z,14.14
2022-10-25T20:20:59.840Z,14.04
2022-10-25T20:25:04.185Z,13.91
2022-10-25T20:29:17.112Z,13.79
2022-10-25T20:33:23.673Z,13.67
2022-10-25T20:37:26.827Z,13.61
2022-10-25T20:41:31.956Z,13.54
2022-10-25T20:45:37.026Z,13.45
2022-10-25T20:49:40.467Z,13.42
2022-10-25T20:53:44.753Z,13.38
2022-10-25T20:57:48.474Z,13.33
2022-10-25T21:01:53.673Z,13.28
2022-10-25T21:05:58.759Z,13.30
2022-10-25T21:10:02.627Z,13.29
2022-10-25T21:14:05.653Z,13.25
2022-10-25T21:18:10.620Z,13.26
2022-10-25T21:22:13.697Z,13.22
2022-10-25T21:26:17.390Z,13.18
2022-10-25T21:30:20.372Z,13.13
2022-10-25T21:34:25.174Z,13.13
2022-10-25T21:38:28.210Z,13.10
2022-10-25T21:42:32.339Z,13.01
2022-10-25T21:46:35.356Z,13.08
2022-10-25T21:50:40.693Z,13.10
2022-10-25T21:54:43.780Z,13.08
2022-10-25T21:58:49.589Z,13.05
2022-10-25T22:02:52.601Z,13.03
2022-10-25T22:06:58.848Z,13.03
2022-10-25T22:11:03.872Z,13.01
2022-10-25T22:15:08.398Z,12.96
2022-10-25T22:19:16.205Z,12.88
2022-10-25T22:23:21.060Z,12.86
2022-10-25T22:27:24.036Z,12.80
2022-10-25T22:31:29.370Z,12.77
2022-10-25T22:35:35.356Z,12.74
2022-10-25T22:39:40.195Z,12.70
2022-10-25T22:43:43.910Z,12.66
2022-10-25T22:47:47.552Z,12.63
2022-10-25T22:51:50.726Z,12.63
2022-10-25T22:56:00.319Z,12.63
2022-10-25T23:00:03.393Z,12.61
2022-10-25T23:04:08.709Z,12.57
2022-10-25T23:08:11.824Z,12.51
2022-10-25T23:12:16.972Z,12.48
2022-10-25T23:16:20.653Z,12.44
2022-10-25T23:20:24.502Z,12.43
2022-10-25T23:24:27.969Z,12.37
2022-10-25T23:28:34.149Z,12.38
2022-10-25T23:32:37.735Z,12.38
2022-10-25T23:36:41.508Z,12.38
2022-10-25T23:40:47.069Z,12.38
2022-10-25T23:44:51.970Z,12.39
2022-10-25T23:48:55.080Z,12.38
2022-10-25T23:52:58.213Z,12.38
2022-10-25T23:57:01.764Z,12.37
